Time;durP1;ratioP1;P1;durP2;ratioP2;P2;SDS_P1;SDS_P2;PMS_P1;PMS_P2;Temp;Humidity;BMP_temperature;BMP_pressure;BME280_temperature;BME280_humidity;BME280_pressure;Samples;Min_cycle;Max_cycle;Signal;HPM_P1;HPM_P2
2023/05/09 00:02:18;;;;;;;51.63;16.45;;;;;;;11.35;76.63;96655.63;5089964;28;20044;-72
2023/05/09 00:04:45;;;;;;;45.25;15.85;;;;;;;11.35;77.20;96652.91;5090257;28;20071;-71
2023/05/09 00:07:13;;;;;;;32.45;15.15;;;;;;;11.35;77.67;96647.44;5090031;28;20044;-71
2023/05/09 00:09:40;;;;;;;43.13;15.80;;;;;;;11.33;77.54;96649.66;5090294;28;20044;-72
2023/05/09 00:12:06;;;;;;;39.30;15.80;;;;;;;11.31;77.58;96646.47;5089717;28;20055;-73
2023/05/09 00:14:33;;;;;;;48.58;16.70;;;;;;;11.31;78.02;96641.00;5089854;28;20048;-74
2023/05/09 00:16:59;;;;;;;47.72;15.65;;;;;;;11.28;78.92;96639.72;5089691;28;20138;-73
2023/05/09 00:19:26;;;;;;;45.05;17.13;;;;;;;11.30;79.97;96637.47;5089312;28;20040;-73
2023/05/09 00:21:52;;;;;;;39.75;15.15;;;;;;;11.32;80.29;96635.22;5089779;28;20048;-73
2023/05/09 00:24:20;;;;;;;42.08;15.63;;;;;;;11.34;79.98;96637.66;5089384;28;20055;-74
2023/05/09 00:26:47;;;;;;;46.63;16.08;;;;;;;11.35;79.42;96631.09;5089918;28;20044;-72
2023/05/09 00:29:14;;;;;;;37.63;15.93;;;;;;;11.35;79.84;96626.44;5089767;28;20045;-71
2023/05/09 00:31:40;;;;;;;44.75;16.42;;;;;;;11.36;80.00;96625.31;5089780;28;20059;-71
2023/05/09 00:34:07;;;;;;;42.05;16.40;;;;;;;11.33;79.38;96622.41;5088924;28;20051;-74
2023/05/09 00:36:33;;;;;;;32.72;15.07;;;;;;;11.33;79.15;96620.50;5089944;28;20709;-72
2023/05/09 00:39:00;;;;;;;41.17;15.93;;;;;;;11.30;78.87;96614.88;5089828;28;20048;-71
2023/05/09 00:41:28;;;;;;;33.60;14.57;;;;;;;11.26;77.15;96613.88;5089418;28;20040;-72
2023/05/09 00:43:54;;;;;;;40.90;14.30;;;;;;;11.23;75.98;96616.16;5089895;28;20040;-72
2023/05/09 00:46:21;;;;;;;28.00;13.45;;;;;;;11.26;75.66;96613.88;5089326;28;20407;-72
2023/05/09 00:48:48;;;;;;;38.25;13.88;;;;;;;11.21;74.75;96618.34;5089545;28;20055;-71
2023/05/09 00:51:15;;;;;;;37.60;13.70;;;;;;;11.17;74.69;96611.97;5089314;28;20522;-72
2023/05/09 00:53:42;;;;;;;36.05;12.60;;;;;;;11.22;74.34;96608.25;5090051;28;20564;-72
2023/05/09 00:56:09;;;;;;;38.45;12.48;;;;;;;11.23;73.51;96605.25;5093430;28;20521;-71
2023/05/09 00:58:37;;;;;;;38.63;13.40;;;;;;;11.23;73.34;96613.41;5093987;28;20044;-72
2023/05/09 01:01:04;;;;;;;34.78;12.30;;;;;;;11.22;72.73;96616.44;5093465;28;20491;-74
2023/05/09 01:03:31;;;;;;;33.33;12.05;;;;;;;11.22;73.27;96611.81;5093593;28;20048;-72
2023/05/09 01:06:03;;;;;;;30.75;11.63;;;;;;;11.26;73.98;96608.44;5093387;28;20499;-71
2023/05/09 01:08:41;;;;;;;37.88;13.07;;;;;;;11.29;73.61;96613.28;5093563;28;20059;-72
2023/05/09 01:11:12;;;;;;;37.85;12.73;;;;;;;11.29;74.24;96603.16;5093213;28;20048;-72
2023/05/09 01:13:57;;;;;;;44.15;12.80;;;;;;;11.30;74.93;96603.97;5093576;28;20047;-71
2023/05/09 01:16:35;;;;;;;23.90;11.98;;;;;;;11.28;74.86;96603.50;5093029;28;20173;-72
2023/05/09 01:19:12;;;;;;;37.03;12.23;;;;;;;11.20;72.71;96592.22;5093415;28;20142;-72
2023/05/09 01:21:42;;;;;;;39.80;12.52;;;;;;;11.23;74.07;96591.59;5093109;28;20510;-71
2023/05/09 01:24:47;;;;;;;40.47;11.68;;;;;;;11.12;72.01;96584.84;5092644;28;20423;-74
2023/05/09 01:27:33;;;;;;;25.80;10.55;;;;;;;11.04;71.61;96574.69;5065656;28;20066;-71
2023/05/09 01:30:03;;;;;;;38.78;11.20;;;;;;;11.13;72.32;96582.91;5093172;28;20494;-71
2023/05/09 01:32:34;;;;;;;37.53;10.63;;;;;;;11.07;71.78;96579.53;5093019;28;20036;-72
2023/05/09 01:35:03;;;;;;;46.17;11.27;;;;;;;11.12;72.37;96587.56;5092985;28;20048;-72
2023/05/09 01:37:33;;;;;;;34.47;10.95;;;;;;;11.11;71.81;96580.50;5092779;28;20047;-72
2023/05/09 01:40:07;;;;;;;25.80;9.88;;;;;;;11.06;71.63;96588.81;5092971;28;20048;-71
2023/05/09 01:42:40;;;;;;;42.47;10.50;;;;;;;11.09;73.25;96582.72;5093100;28;20131;-72
2023/05/09 01:45:10;;;;;;;23.80;9.18;;;;;;;11.09;72.99;96585.47;5092696;28;20048;-72
2023/05/09 01:47:39;;;;;;;33.70;9.63;;;;;;;11.06;72.96;96583.34;5087754;28;20446;-73
2023/05/09 01:50:07;;;;;;;25.33;9.02;;;;;;;11.04;72.27;96584.81;5092319;28;20044;-73
2023/05/09 01:52:35;;;;;;;37.17;10.18;;;;;;;11.06;72.31;96582.56;5092457;28;20511;-73
2023/05/09 01:55:03;;;;;;;51.28;11.50;;;;;;;11.02;72.87;96587.84;5092446;28;20499;-74
2023/05/09 01:57:30;;;;;;;37.47;10.05;;;;;;;11.01;72.55;96580.78;5092893;28;20514;-73
2023/05/09 01:59:58;;;;;;;31.80;9.60;;;;;;;10.95;71.80;96582.84;5093016;28;20055;-73
2023/05/09 02:02:27;;;;;;;65.40;11.93;;;;;;;10.92;71.00;96571.78;5092300;28;20109;-74
2023/05/09 02:04:55;;;;;;;39.40;10.45;;;;;;;10.94;72.64;96573.06;5092428;28;20522;-76
2023/05/09 02:07:23;;;;;;;29.90;9.15;;;;;;;10.94;72.50;96574.97;5090921;28;20082;-72
2023/05/09 02:09:52;;;;;;;48.92;9.95;;;;;;;10.92;73.06;96574.50;5092483;28;20040;-72
2023/05/09 02:12:19;;;;;;;61.22;11.90;;;;;;;10.91;73.40;96576.44;5091999;28;20510;-74
2023/05/09 02:14:46;;;;;;;40.28;10.75;;;;;;;10.88;72.85;96565.34;5092537;28;20437;-72
2023/05/09 02:17:15;;;;;;;46.67;10.32;;;;;;;10.86;72.35;96575.78;5091894;28;20048;-72
2023/05/09 02:19:43;;;;;;;40.75;9.43;;;;;;;10.81;71.71;96570.47;5092253;28;20052;-71
2023/05/09 02:22:11;;;;;;;42.15;10.80;;;;;;;10.77;71.48;96566.75;5091696;28;20055;-72
2023/05/09 02:24:38;;;;;;;44.72;10.68;;;;;;;10.74;72.26;96570.09;5091859;28;20043;-71
2023/05/09 02:27:06;;;;;;;33.50;10.30;;;;;;;10.71;73.40;96577.78;5092050;28;20381;-72
2023/05/09 02:29:39;;;;;;;36.15;9.48;;;;;;;10.69;73.77;96569.09;5092340;28;20044;-72
2023/05/09 02:32:08;;;;;;;32.72;9.23;;;;;;;10.64;73.77;96571.16;5092083;28;20165;-72
2023/05/09 02:34:36;;;;;;;32.38;9.57;;;;;;;10.60;73.51;96572.91;5092057;28;20052;-71
2023/05/09 02:37:05;;;;;;;34.70;9.23;;;;;;;10.54;72.99;96579.59;5091347;28;20059;-72
2023/05/09 02:39:32;;;;;;;37.97;9.57;;;;;;;10.50;73.57;96582.16;5091846;28;20048;-72
2023/05/09 02:42:05;;;;;;;38.80;9.50;;;;;;;10.45;73.91;96579.56;5091950;28;20048;-72
2023/05/09 02:44:32;;;;;;;39.53;10.13;;;;;;;10.41;73.78;96578.56;5091731;28;20113;-73
2023/05/09 02:46:58;;;;;;;36.60;10.00;;;;;;;10.40;75.18;96582.41;5091745;28;20052;-73
2023/05/09 02:49:25;;;;;;;36.22;9.95;;;;;;;10.36;75.51;96575.97;5091536;28;20491;-73
2023/05/09 02:51:51;;;;;;;42.60;10.40;;;;;;;10.34;74.70;96564.59;5091827;28;20135;-72
2023/05/09 02:54:20;;;;;;;36.97;9.27;;;;;;;10.34;74.90;96573.56;5090880;28;20044;-74
2023/05/09 02:56:47;;;;;;;40.33;9.45;;;;;;;10.31;74.93;96563.28;5091485;28;20514;-73
2023/05/09 02:59:13;;;;;;;42.95;9.70;;;;;;;10.31;74.52;96551.59;5091191;28;20056;-73
2023/05/09 03:01:40;;;;;;;36.65;9.43;;;;;;;10.30;75.55;96556.25;5091634;28;20488;-72
2023/05/09 03:04:06;;;;;;;26.60;8.80;;;;;;;10.30;76.30;96550.00;5091033;28;20043;-72
2023/05/09 03:06:32;;;;;;;46.65;9.75;;;;;;;10.28;75.66;96557.66;5091599;28;20067;-72
2023/05/09 03:08:59;;;;;;;40.92;8.75;;;;;;;10.26;75.45;96549.81;5091615;28;20048;-72
2023/05/09 03:11:28;;;;;;;31.98;8.95;;;;;;;10.25;74.83;96552.84;5090665;28;20518;-72
2023/05/09 03:13:54;;;;;;;46.25;9.75;;;;;;;10.19;73.84;96554.88;5091206;28;20146;-72
2023/05/09 03:16:21;;;;;;;39.20;9.00;;;;;;;10.15;73.32;96553.88;5090523;28;20039;-72
2023/05/09 03:18:47;;;;;;;36.35;9.60;;;;;;;10.15;75.55;96549.22;5090951;28;20392;-72
2023/05/09 03:21:14;;;;;;;40.80;9.82;;;;;;;10.15;77.16;96548.44;5090650;28;20044;-72
2023/05/09 03:23:41;;;;;;;43.75;9.45;;;;;;;10.12;77.93;96544.41;5090921;28;20450;-72
2023/05/09 03:26:07;;;;;;;22.45;7.95;;;;;;;10.11;77.15;96542.78;5090639;28;20543;-72
2023/05/09 03:28:35;;;;;;;40.58;10.07;;;;;;;10.09;75.66;96545.03;5090884;28;20492;-73
2023/05/09 03:31:01;;;;;;;37.35;8.80;;;;;;;10.03;74.54;96543.56;5090489;28;20048;-74
2023/05/09 03:33:28;;;;;;;35.90;8.77;;;;;;;10.01;74.49;96548.50;5091073;28;20059;-73
2023/05/09 03:35:54;;;;;;;36.47;8.90;;;;;;;9.97;74.05;96541.25;5091039;28;20056;-72
2023/05/09 03:38:23;;;;;;;37.50;8.90;;;;;;;9.91;73.38;96543.28;5090327;28;20051;-71
2023/05/09 03:40:49;;;;;;;29.63;8.45;;;;;;;9.84;73.57;96546.44;5090832;28;20040;-72
2023/05/09 03:43:16;;;;;;;35.22;9.02;;;;;;;9.81;73.72;96543.53;5089737;28;20044;-72
2023/05/09 03:45:43;;;;;;;34.78;8.60;;;;;;;9.78;74.40;96541.44;5090793;28;20036;-72
2023/05/09 03:48:10;;;;;;;40.40;9.27;;;;;;;9.77;74.88;96542.56;5090268;28;20048;-72
2023/05/09 03:50:37;;;;;;;31.60;8.27;;;;;;;9.74;75.52;96543.16;5090592;28;20040;-72
2023/05/09 03:53:03;;;;;;;38.35;9.35;;;;;;;9.74;77.12;96540.44;5090092;28;20463;-72
2023/05/09 03:55:30;;;;;;;29.17;9.35;;;;;;;9.76;78.68;96532.78;5090401;28;20040;-72
2023/05/09 03:57:56;;;;;;;36.35;9.52;;;;;;;9.78;78.89;96533.28;5090701;28;20407;-72
2023/05/09 04:00:25;;;;;;;39.85;9.40;;;;;;;9.74;78.15;96532.28;5089885;28;20040;-72
2023/05/09 04:02:53;;;;;;;35.63;10.00;;;;;;;9.73;78.42;96536.13;5090482;28;20469;-72
2023/05/09 04:05:20;;;;;;;25.17;8.88;;;;;;;9.71;78.05;96538.34;5089954;28;20048;-72
2023/05/09 04:07:46;;;;;;;36.10;9.65;;;;;;;9.71;78.65;96543.78;5090472;28;20040;-72
2023/05/09 04:10:13;;;;;;;20.63;8.27;;;;;;;9.72;78.12;96534.53;5089923;28;20050;-72
2023/05/09 04:12:39;;;;;;;41.67;9.73;;;;;;;9.68;77.78;96531.59;5089932;28;20047;-72
2023/05/09 04:15:07;;;;;;;46.38;10.63;;;;;;;9.72;77.69;96534.53;5089661;28;20044;-72
2023/05/09 04:17:33;;;;;;;48.42;10.43;;;;;;;9.67;76.84;96544.41;5084626;28;20047;-72
2023/05/09 04:20:02;;;;;;;41.28;8.93;;;;;;;9.67;75.60;96555.28;5090379;28;20044;-72
2023/05/09 04:22:28;;;;;;;36.70;9.15;;;;;;;9.67;75.13;96555.28;5090004;28;20123;-71
2023/05/09 04:24:55;;;;;;;38.10;8.93;;;;;;;9.68;76.74;96553.38;5090190;28;20052;-72
2023/05/09 04:27:22;;;;;;;41.63;8.75;;;;;;;9.64;76.93;96550.44;5089931;28;20047;-71
2023/05/09 04:29:49;;;;;;;35.03;8.70;;;;;;;9.66;76.61;96556.41;5089411;28;20093;-72
2023/05/09 04:32:15;;;;;;;70.15;9.75;;;;;;;9.62;76.32;96546.44;5089640;28;20051;-71
2023/05/09 04:34:42;;;;;;;43.80;8.52;;;;;;;9.55;74.88;96549.59;5090399;28;20040;-72
2023/05/09 04:37:09;;;;;;;42.40;8.77;;;;;;;9.50;74.02;96549.69;5090162;28;20046;-71
2023/05/09 04:39:36;;;;;;;33.67;8.25;;;;;;;9.57;74.78;96549.28;5090506;28;20066;-71
2023/05/09 04:42:03;;;;;;;56.72;9.50;;;;;;;9.59;75.23;96552.47;5090334;28;20543;-73
2023/05/09 04:44:29;;;;;;;42.72;8.13;;;;;;;9.54;73.45;96556.09;5090812;28;20094;-74
2023/05/09 04:46:56;;;;;;;41.28;9.23;;;;;;;9.38;73.17;96552.91;5091299;28;20055;-72
2023/05/09 04:49:23;;;;;;;42.65;9.02;;;;;;;9.46;73.20;96559.56;5091573;28;20046;-72
2023/05/09 04:51:52;;;;;;;42.00;8.05;;;;;;;9.49;73.54;96550.78;5091533;28;20132;-72
2023/05/09 04:54:20;;;;;;;43.70;8.15;;;;;;;9.45;74.17;96552.53;5091033;28;20048;-71
2023/05/09 04:56:46;;;;;;;48.47;8.13;;;;;;;9.41;73.54;96546.09;5090863;28;20056;-72
2023/05/09 04:59:13;;;;;;;45.30;8.77;;;;;;;9.38;73.73;96546.69;5091493;28;20044;-72
2023/05/09 05:01:40;;;;;;;40.95;7.93;;;;;;;9.45;74.44;96543.53;5091909;28;20032;-72
2023/05/09 05:04:06;;;;;;;42.42;8.23;;;;;;;9.36;74.35;96538.84;5091488;28;20048;-73
2023/05/09 05:06:33;;;;;;;41.22;8.45;;;;;;;9.44;74.08;96539.22;5091984;28;20054;-72
2023/05/09 05:08:59;;;;;;;53.30;8.35;;;;;;;9.43;74.74;96535.69;5094384;28;20044;-74
2023/05/09 05:11:27;;;;;;;43.58;7.72;;;;;;;9.44;74.16;96529.16;5093881;28;20047;-72
2023/05/09 05:13:53;;;;;;;26.55;7.95;;;;;;;9.41;73.85;96529.78;5093277;28;20056;-73
2023/05/09 05:16:20;;;;;;;33.08;8.15;;;;;;;9.48;73.47;96530.16;5092782;28;20051;-72
2023/05/09 05:18:46;;;;;;;18.50;8.05;;;;;;;9.46;74.19;96524.22;5093933;28;20044;-73
2023/05/09 05:21:15;;;;;;;31.42;8.88;;;;;;;9.32;73.60;96531.59;5091356;28;20055;-72
2023/05/09 05:23:41;;;;;;;33.45;8.57;;;;;;;9.43;73.36;96524.81;5089449;28;20135;-72
2023/05/09 05:26:07;;;;;;;27.83;8.15;;;;;;;9.42;73.77;96525.94;5089411;28;20044;-72
2023/05/09 05:28:35;;;;;;;30.30;7.97;;;;;;;9.47;73.83;96525.84;5089697;28;20048;-71
2023/05/09 05:31:02;;;;;;;27.92;7.97;;;;;;;9.63;73.98;96531.72;5089539;28;20048;-73
2023/05/09 05:33:28;;;;;;;23.35;8.25;;;;;;;9.61;74.29;96534.75;5089526;28;20051;-72
2023/05/09 05:35:55;;;;;;;32.78;9.27;;;;;;;9.58;73.99;96535.34;5089910;28;20396;-73
2023/05/09 05:38:21;;;;;;;29.02;8.38;;;;;;;9.67;73.93;96528.09;5089318;28;20055;-72
2023/05/09 05:40:48;;;;;;;26.35;8.07;;;;;;;9.89;73.75;96531.94;5091597;28;20051;-72
2023/05/09 05:43:14;;;;;;;28.13;8.68;;;;;;;9.84;72.72;96521.16;5092553;28;20044;-72
2023/05/09 05:45:42;;;;;;;28.27;9.07;;;;;;;10.01;73.42;96518.56;5092949;28;20044;-73
2023/05/09 05:48:08;;;;;;;23.73;9.52;;;;;;;9.88;71.92;96517.53;5092251;28;20062;-74
2023/05/09 05:50:36;;;;;;;29.95;10.15;;;;;;;9.96;72.22;96524.13;5092720;28;20154;-74
2023/05/09 05:53:03;;;;;;;30.52;9.55;;;;;;;9.86;71.32;96524.38;5092478;28;20044;-72
2023/05/09 05:55:29;;;;;;;28.63;10.30;;;;;;;9.98;70.99;96530.09;5092983;28;20101;-74
2023/05/09 05:57:55;;;;;;;37.22;10.48;;;;;;;10.05;71.53;96516.84;5093089;28;20044;-73
2023/05/09 06:00:22;;;;;;;20.15;8.65;;;;;;;10.23;71.38;96517.72;5092602;28;20048;-72
2023/05/09 06:02:50;;;;;;;20.55;9.30;;;;;;;10.29;72.00;96521.97;5092755;28;20040;-72
2023/05/09 06:05:16;;;;;;;24.20;9.73;;;;;;;10.40;71.47;96522.53;5091899;28;20495;-72
2023/05/09 06:07:44;;;;;;;20.08;8.82;;;;;;;10.50;71.05;96521.44;5092614;28;20059;-72
2023/05/09 06:10:11;;;;;;;19.30;9.35;;;;;;;10.42;69.71;96518.34;5091853;28;20044;-72
2023/05/09 06:12:37;;;;;;;23.35;10.05;;;;;;;10.39;69.65;96526.38;5092429;28;20052;-71
2023/05/09 06:15:05;;;;;;;19.02;9.85;;;;;;;10.44;69.98;96526.22;5092273;28;20044;-72
2023/05/09 06:17:31;;;;;;;18.58;9.35;;;;;;;10.36;69.61;96518.81;5092319;28;20526;-71
2023/05/09 06:19:59;;;;;;;18.92;9.48;;;;;;;10.44;69.47;96518.06;5092297;28;20048;-72
2023/05/09 06:22:25;;;;;;;26.42;10.40;;;;;;;10.63;69.87;96515.09;5091882;28;20047;-74
2023/05/09 06:24:52;;;;;;;20.83;9.68;;;;;;;10.59;69.11;96514.91;5092152;28;20051;-71
2023/05/09 06:27:19;;;;;;;16.25;9.35;;;;;;;10.58;69.57;96518.75;5091577;28;20048;-72
2023/05/09 06:29:45;;;;;;;14.70;9.50;;;;;;;10.51;69.10;96514.88;5092335;28;20058;-71
2023/05/09 06:32:11;;;;;;;17.77;9.60;;;;;;;10.74;69.70;96513.69;5091768;28;20048;-72
2023/05/09 06:34:38;;;;;;;16.60;9.07;;;;;;;10.77;68.71;96509.53;5091970;28;20520;-72
2023/05/09 06:37:06;;;;;;;18.42;10.50;;;;;;;10.97;69.95;96508.97;5091989;28;20537;-72
2023/05/09 06:39:33;;;;;;;15.65;10.27;;;;;;;10.97;69.38;96503.53;5092084;28;20051;-72
2023/05/09 06:42:00;;;;;;;14.13;9.20;;;;;;;11.16;68.79;96501.31;5091945;28;20446;-72
2023/05/09 06:44:27;;;;;;;18.92;9.32;;;;;;;11.23;68.78;96501.66;5091392;28;20109;-72
2023/05/09 06:46:53;;;;;;;15.65;9.20;;;;;;;11.28;68.13;96491.72;5091768;28;20048;-72
2023/05/09 06:49:19;;;;;;;16.83;9.68;;;;;;;11.38;68.20;96496.84;5091071;28;20407;-72
2023/05/09 06:51:46;;;;;;;20.73;8.82;;;;;;;11.48;68.31;96491.91;5090962;28;20052;-72
2023/05/09 06:54:15;;;;;;;17.02;9.38;;;;;;;11.58;68.69;96487.22;5091205;28;20052;-72
2023/05/09 06:56:42;;;;;;;20.25;9.82;;;;;;;11.75;67.40;96485.31;5091781;28;20466;-72
2023/05/09 06:59:12;;;;;;;16.10;9.20;;;;;;;11.86;67.40;96469.44;5091104;28;20048;-72
2023/05/09 07:01:38;;;;;;;20.23;9.07;;;;;;;11.76;65.68;96462.38;5091517;28;20040;-72
2023/05/09 07:04:05;;;;;;;19.02;9.05;;;;;;;11.77;65.84;96472.16;5090971;28;20036;-72
2023/05/09 07:06:31;;;;;;;16.10;7.93;;;;;;;11.96;65.56;96469.13;5091480;28;20043;-72
2023/05/09 07:08:58;;;;;;;17.50;8.93;;;;;;;12.05;66.24;96466.34;5091740;28;20047;-72
2023/05/09 07:11:26;;;;;;;17.33;8.30;;;;;;;12.11;65.00;96464.25;5090849;28;20491;-71
2023/05/09 07:13:52;;;;;;;25.95;8.50;;;;;;;12.08;65.81;96460.25;5091351;28;20044;-72
2023/05/09 07:16:21;;;;;;;11.52;7.25;;;;;;;12.31;66.06;96460.03;5088957;28;20065;-72
2023/05/09 07:18:48;;;;;;;13.45;7.63;;;;;;;12.40;65.57;96458.88;5095800;28;20704;-73
2023/05/09 07:21:14;;;;;;;13.02;6.88;;;;;;;12.51;63.68;96453.84;5095224;28;20495;-72
2023/05/09 07:23:41;;;;;;;14.90;7.80;;;;;;;12.31;63.61;96460.03;5094502;28;20407;-72
2023/05/09 07:26:07;;;;;;;19.30;10.10;;;;;;;12.46;63.04;96465.75;5091987;28;20503;-71
2023/05/09 07:28:35;;;;;;;12.13;7.55;;;;;;;12.47;63.24;96466.53;5092039;28;20051;-73
2023/05/09 07:31:02;;;;;;;10.95;7.85;;;;;;;12.43;64.26;96458.22;5091257;28;20059;-76
2023/05/09 07:33:28;;;;;;;12.70;8.40;;;;;;;12.52;62.94;96460.91;5091296;28;20054;-74
2023/05/09 07:35:55;;;;;;;14.88;8.07;;;;;;;12.54;62.98;96464.13;5091924;28;20044;-72
2023/05/09 07:38:21;;;;;;;12.55;8.10;;;;;;;12.84;63.47;96454.00;5091493;28;20050;-72
2023/05/09 07:40:48;;;;;;;14.65;8.35;;;;;;;12.91;63.21;96446.09;5091752;28;20454;-72
2023/05/09 07:43:14;;;;;;;9.93;8.25;;;;;;;13.05;62.64;96443.94;5090578;28;20043;-72
2023/05/09 07:45:42;;;;;;;11.02;8.15;;;;;;;13.06;62.78;96439.25;5086087;28;20049;-72
2023/05/09 07:48:09;;;;;;;11.13;7.63;;;;;;;13.40;63.57;96437.44;5089285;28;20054;-72
2023/05/09 07:50:35;;;;;;;10.55;7.22;;;;;;;13.58;62.25;96433.44;5090863;28;20047;-73
2023/05/09 07:53:02;;;;;;;13.32;7.80;;;;;;;13.76;61.07;96434.84;5090365;28;20056;-72
2023/05/09 07:55:28;;;;;;;15.05;7.60;;;;;;;14.53;58.76;96431.66;5090523;28;20517;-72
2023/05/09 07:57:55;;;;;;;10.68;7.88;;;;;;;14.69;56.90;96434.53;5090502;28;20678;-72
2023/05/09 08:00:22;;;;;;;10.90;7.68;;;;;;;14.41;58.05;96423.38;5090043;28;20140;-72
2023/05/09 08:02:51;;;;;;;13.93;7.63;;;;;;;14.29;57.50;96424.97;5090032;28;20063;-72
2023/05/09 08:05:17;;;;;;;11.15;7.93;;;;;;;14.47;57.44;96413.81;5089210;28;20052;-72
2023/05/09 08:07:44;;;;;;;12.90;7.43;;;;;;;15.09;56.82;96412.69;5090434;28;20551;-72
2023/05/09 08:10:11;;;;;;;12.57;7.97;;;;;;;15.59;55.10;96414.94;5090060;28;20048;-72
2023/05/09 08:12:37;;;;;;;12.25;8.57;;;;;;;15.98;56.54;96408.97;5090118;28;20051;-71
2023/05/09 08:15:06;;;;;;;12.15;7.88;;;;;;;16.25;52.92;96408.13;5090141;28;20055;-72
2023/05/09 08:17:32;;;;;;;11.10;8.48;;;;;;;16.76;56.17;96405.50;5084444;28;20059;-72
2023/05/09 08:20:00;;;;;;;11.82;9.05;;;;;;;17.08;50.57;96402.69;5090089;28;20051;-72
2023/05/09 08:22:27;;;;;;;15.80;8.95;;;;;;;17.36;50.72;96406.06;5089758;28;20043;-72
2023/05/09 08:24:53;;;;;;;10.85;8.20;;;;;;;18.11;52.36;96402.06;5089858;28;20052;-72
2023/05/09 08:27:20;;;;;;;10.75;7.88;;;;;;;18.55;48.46;96395.34;5089364;28;20415;-72
2023/05/09 08:29:46;;;;;;;15.57;7.93;;;;;;;19.08;49.13;96392.66;5090046;28;20063;-72
2023/05/09 08:32:13;;;;;;;14.57;8.15;;;;;;;19.18;46.85;96397.53;5089646;28;20044;-72
2023/05/09 08:34:39;;;;;;;11.63;7.90;;;;;;;18.71;47.78;96390.53;5090100;28;20124;-72
2023/05/09 08:37:07;;;;;;;9.82;7.85;;;;;;;17.80;46.69;96393.97;5089430;28;20702;-71
2023/05/09 08:39:34;;;;;;;14.88;8.98;;;;;;;17.96;50.34;96384.50;5090256;28;20628;-73
2023/05/09 08:42:01;;;;;;;16.15;8.93;;;;;;;17.73;49.19;96386.38;5089803;28;20392;-72
2023/05/09 08:44:30;;;;;;;13.30;8.00;;;;;;;18.24;49.60;96388.91;5089296;28;20685;-72
2023/05/09 08:46:59;;;;;;;16.50;9.15;;;;;;;18.55;49.11;96378.81;5089674;28;20048;-72
2023/05/09 08:49:27;;;;;;;27.08;9.77;;;;;;;19.04;48.65;96371.31;5089597;28;20044;-72
2023/05/09 08:51:54;;;;;;;21.45;9.70;;;;;;;19.07;45.58;96369.00;5090076;28;20074;-72
2023/05/09 08:54:23;;;;;;;20.75;9.45;;;;;;;18.51;47.12;96374.03;5089700;28;20437;-72
2023/05/09 08:56:50;;;;;;;26.02;9.45;;;;;;;18.86;47.12;96363.97;5089724;28;20483;-72
2023/05/09 08:59:18;;;;;;;14.27;9.35;;;;;;;18.96;51.79;96361.38;5089553;28;20047;-72
2023/05/09 09:01:45;;;;;;;17.27;8.98;;;;;;;18.80;46.70;96368.22;5089788;28;20503;-72
2023/05/09 09:04:11;;;;;;;20.83;9.38;;;;;;;18.59;49.17;96360.38;5088275;28;20215;-72
2023/05/09 09:06:39;;;;;;;17.73;9.85;;;;;;;18.47;49.20;96347.56;5090025;28;20040;-72
2023/05/09 09:09:07;;;;;;;20.85;9.73;;;;;;;18.45;50.87;96345.19;5089684;28;20671;-72
2023/05/09 09:11:36;;;;;;;16.83;9.63;;;;;;;18.31;48.55;96341.38;5089931;28;20662;-72
2023/05/09 09:14:09;;;;;;;18.25;10.75;;;;;;;18.20;48.99;96341.19;5090108;28;20457;-74
2023/05/09 09:16:36;;;;;;;;;;;;;;;18.08;49.18;96338.63;5095004;28;20119;-72
2023/05/09 09:19:07;;;;;;;16.77;9.30;;;;;;;18.27;51.19;96327.56;5094774;28;19920;-72
2023/05/09 09:21:34;;;;;;;21.10;10.02;;;;;;;17.97;49.36;96330.19;5093893;28;20050;-71
2023/05/09 09:24:01;;;;;;;31.27;11.13;;;;;;;18.20;50.82;96321.91;5094904;28;20063;-72
2023/05/09 09:26:30;;;;;;;23.80;10.68;;;;;;;18.06;51.87;96327.16;5094488;28;20384;-72
2023/05/09 09:28:58;;;;;;;21.30;10.45;;;;;;;18.26;51.50;96314.91;5096019;28;20499;-72
2023/05/09 09:31:26;;;;;;;26.40;11.25;;;;;;;18.35;52.36;96315.47;5101708;28;20044;-72
2023/05/09 09:33:58;;;;;;;27.13;11.43;;;;;;;18.45;50.43;96314.06;5102027;28;20142;-74
2023/05/09 09:36:28;;;;;;;28.58;12.73;;;;;;;18.58;50.21;96309.13;5100553;28;20587;-72
2023/05/09 09:39:00;;;;;;;31.05;12.00;;;;;;;18.53;50.57;96307.47;5100884;28;20044;-71
2023/05/09 09:41:31;;;;;;;25.90;11.38;;;;;;;18.59;50.28;96299.69;5100474;28;20491;-72
2023/05/09 09:44:06;;;;;;;27.55;12.20;;;;;;;18.76;52.42;96297.22;5100025;28;20491;-72
2023/05/09 09:46:41;;;;;;;23.05;11.90;;;;;;;18.75;51.08;96305.88;5094032;28;20048;-72
2023/05/09 09:49:09;;;;;;;33.83;12.32;;;;;;;18.91;50.12;96289.94;5100961;28;20040;-73
2023/05/09 09:51:35;;;;;;;30.67;12.35;;;;;;;18.94;52.25;96296.66;5094134;28;20039;-72
2023/05/09 09:54:03;;;;;;;45.83;12.38;;;;;;;18.77;48.78;96296.03;5092568;28;20071;-74
2023/05/09 09:56:39;;;;;;;43.03;12.85;;;;;;;18.44;53.01;96299.47;5093056;28;20414;-73
2023/05/09 09:59:12;;;;;;;34.38;11.48;;;;;;;18.65;53.17;96287.97;5092410;28;20052;-72
2023/05/09 10:02:01;;;;;;;23.58;10.70;;;;;;;18.87;52.74;96291.06;5092941;28;20047;-74
2023/05/09 10:04:30;;;;;;;30.75;12.45;;;;;;;18.83;49.08;96287.44;5083468;28;20131;-71
2023/05/09 10:06:59;;;;;;;35.80;12.88;;;;;;;18.88;49.93;96273.34;5092584;28;20453;-72
2023/05/09 10:09:27;;;;;;;39.72;11.45;;;;;;;19.10;50.75;96260.59;5092596;28;20531;-74
2023/05/09 10:11:54;;;;;;;34.83;12.10;;;;;;;19.20;54.37;96257.97;5093028;28;20045;-74
2023/05/09 10:14:24;;;;;;;41.25;12.52;;;;;;;19.24;51.88;96255.25;5091926;28;20067;-71
2023/05/09 10:16:52;;;;;;;38.10;11.90;;;;;;;19.16;51.15;96250.81;5092574;28;20051;-72
2023/05/09 10:19:20;;;;;;;32.28;12.18;;;;;;;19.30;50.15;96246.25;5091840;28;20522;-73
2023/05/09 10:21:52;;;;;;;40.63;12.82;;;;;;;19.28;49.02;96247.81;5092592;28;20048;-74
2023/05/09 10:24:22;;;;;;;22.65;12.27;;;;;;;19.11;51.43;96253.94;5092107;28;20054;-72
2023/05/09 10:26:53;;;;;;;30.98;11.73;;;;;;;19.06;50.17;96251.50;5091454;28;20503;-72
2023/05/09 10:29:25;;;;;;;34.10;11.60;;;;;;;19.20;50.25;96240.63;5092368;28;20519;-72
2023/05/09 10:31:57;;;;;;;36.10;12.50;;;;;;;19.40;52.47;96238.47;5092513;28;20044;-72
2023/05/09 10:34:26;;;;;;;48.08;13.15;;;;;;;19.42;51.30;96225.91;5091419;28;20488;-72
2023/05/09 10:36:53;;;;;;;39.72;11.98;;;;;;;19.84;51.59;96230.28;5092553;28;20051;-72
2023/05/09 10:39:21;;;;;;;39.83;14.70;;;;;;;19.58;48.18;96227.63;5091916;28;20492;-72
2023/05/09 10:41:49;;;;;;;35.13;13.15;;;;;;;19.43;49.67;96232.22;5091639;28;20047;-72
2023/05/09 10:44:16;;;;;;;42.60;14.20;;;;;;;19.58;51.20;96222.09;5091290;28;20047;-72
2023/05/09 10:46:45;;;;;;;33.17;12.40;;;;;;;19.58;49.67;96216.59;5086372;28;20511;-72
2023/05/09 10:49:12;;;;;;;39.83;14.70;;;;;;;19.53;49.15;96204.69;5091537;28;20043;-72
2023/05/09 10:51:39;;;;;;;34.25;13.38;;;;;;;19.43;50.20;96202.63;5092472;28;20555;-72
2023/05/09 10:54:14;;;;;;;38.83;13.30;;;;;;;19.44;47.50;96184.88;5091379;28;20055;-72
2023/05/09 10:56:41;;;;;;;34.10;12.45;;;;;;;19.72;50.69;96191.88;5091498;28;20067;-72
2023/05/09 10:59:35;;;;;;;35.97;12.65;;;;;;;19.56;50.56;96187.34;5091023;28;20040;-72
2023/05/09 11:02:03;;;;;;;32.28;12.35;;;;;;;19.52;49.45;96186.53;5091738;28;20044;-72
2023/05/09 11:04:31;;;;;;;34.33;13.48;;;;;;;19.67;50.21;96181.16;5091183;28;20045;-72
2023/05/09 11:06:59;;;;;;;34.28;12.85;;;;;;;19.95;51.48;96175.91;5091611;28;20470;-72
2023/05/09 11:09:32;;;;;;;29.38;11.70;;;;;;;20.06;49.77;96182.28;5091243;28;20422;-72
2023/05/09 11:12:02;;;;;;;25.40;11.40;;;;;;;20.10;48.17;96164.91;5091489;28;20052;-71
2023/05/09 11:14:30;;;;;;;30.08;12.63;;;;;;;20.04;47.41;96162.50;5090972;28;20050;-72
2023/05/09 11:16:57;;;;;;;36.03;13.10;;;;;;;19.98;47.82;96161.28;5091184;28;20048;-72
2023/05/09 11:19:36;;;;;;;33.15;11.60;;;;;;;20.04;47.89;96159.75;5090988;28;20047;-72
2023/05/09 11:22:11;;;;;;;31.38;11.85;;;;;;;19.91;48.03;96147.44;5091175;28;20071;-74
2023/05/09 11:24:37;;;;;;;22.27;11.70;;;;;;;19.98;49.74;96150.22;5091319;28;20492;-71
2023/05/09 11:27:14;;;;;;;35.55;11.35;;;;;;;20.03;45.58;96143.56;5090601;28;20056;-72
2023/05/09 11:29:44;;;;;;;25.60;10.60;;;;;;;19.89;44.19;96138.75;5091316;28;20044;-73